WetterOnline ( https://www.wetteronline.de )

Wetter aktuell Bad Homburg

Aktuelles Wetter: Kleiner Feldberg (802m)

6-stündlich | Neueste Meldungen
Ortszeit Temperatur Wetter
So, 09.05. 14:00 21.0° C wolkenlos
So, 09.05. 8:00 13.0° C wolkig
So, 09.05. 2:00 9.4° C wolkig
Sa, 08.05. 20:00 9.6° C leicht bewölkt
Sa, 08.05. 14:00 9.0° C wolkig
Sa, 08.05. 8:00 3.1° C fast wolkenlos
Sa, 08.05. 2:00 1.7° C bewölkt
Fr, 07.05. 20:00 3.5° C wolkenlos
Ortszeit Temperatur Wetter
So, 09.05. 15:30 22.5° C bedeckt
So, 09.05. 15:20 22.5° C bedeckt
So, 09.05. 15:10 22.0° C bewölkt
So, 09.05. 15:00 21.3° C leicht bewölkt
So, 09.05. 14:50 21.3° C leicht bewölkt
So, 09.05. 14:40 20.6° C leicht bewölkt
So, 09.05. 14:30 22.0° C wolkenlos
So, 09.05. 14:00 21.0° C wolkenlos
So, 09.05. 13:30 19.8° C wolkenlos
So, 09.05. 13:00 19.7° C wolkenlos
So, 09.05. 12:30 18.3° C leicht bewölkt
Ortszeit Relative Feuchte Sichtweite
So, 09.05. 14:00 43% >70 km
So, 09.05. 8:00 65% 60 km
So, 09.05. 2:00 67% 55 km
Sa, 08.05. 20:00 55% 50 km
Sa, 08.05. 14:00 50% 65 km
Sa, 08.05. 8:00 69% 60 km
Sa, 08.05. 2:00 71% 50 km
Fr, 07.05. 20:00 63% 55 km
Ortszeit Relative Feuchte Sichtweite
So, 09.05. 15:30 39% 45 km
So, 09.05. 15:20 39% -
So, 09.05. 15:10 41% -
So, 09.05. 15:00 42% 65 km
So, 09.05. 14:50 42% -
So, 09.05. 14:40 43% -
So, 09.05. 14:30 40% 35 km
So, 09.05. 14:00 43% >70 km
So, 09.05. 13:30 46% >70 km
So, 09.05. 13:00 48% 55 km
So, 09.05. 12:30 48% 40 km
Ortszeit Niederschlagsmenge Niederschlagsart
So, 09.05. 14:00 0.0 l/m2 in 6 Std. -
So, 09.05. 8:00 0.0 l/m2 in 12 Std. -
So, 09.05. 2:00 0.0 l/m2 in 6 Std. -
Sa, 08.05. 20:00 0.0 l/m2 in 12 Std. -
Sa, 08.05. 14:00 0.0 l/m2 in 6 Std. -
Sa, 08.05. 8:00 0.0 l/m2 in 12 Std. -
Sa, 08.05. 2:00 0.0 l/m2 in 6 Std. -
Fr, 07.05. 20:00 3 l/m2 in 12 Std. Schnee, Regen
Ortszeit Niederschlagsmenge Niederschlagsart
So, 09.05. 15:30 0.0 l/m2 in 1 Std. -
So, 09.05. 15:20 keine Meldung -
So, 09.05. 15:10 keine Meldung -
So, 09.05. 15:00 0.0 l/m2 in 1 Std. -
So, 09.05. 14:50 keine Meldung -
So, 09.05. 14:40 keine Meldung -
So, 09.05. 14:30 0.0 l/m2 in 1 Std. -
So, 09.05. 14:00 0.0 l/m2 in 1 Std. -
So, 09.05. 13:30 0.0 l/m2 in 1 Std. -
So, 09.05. 13:00 0.0 l/m2 in 1 Std. -
So, 09.05. 12:30 0.0 l/m2 in 1 Std. -
Ortszeit Stärke Spitze Richtung
km/h Bft. km/h Grad Sektor
So, 09.05. 14:00 18 3 47 170° S
So, 09.05. 8:00 18 3 36 180° S
So, 09.05. 2:00 19 3 31 200° S
Sa, 08.05. 20:00 17 3 37 190° S
Sa, 08.05. 14:00 15 3 33 170° S
Sa, 08.05. 8:00 13 3 30 190° S
Sa, 08.05. 2:00 14 3 25 200° S
Fr, 07.05. 20:00 9 2 54 310° NW
Ortszeit Stärke Spitze Richtung
km/h Bft. km/h Grad Sektor
So, 09.05. 15:30 18 3 40 170° S
So, 09.05. 15:20 18 3 - 170° S
So, 09.05. 15:10 14 3 - 180° S
So, 09.05. 15:00 15 3 41 180° S
So, 09.05. 14:50 15 3 - 180° S
So, 09.05. 14:40 19 3 - 180° S
So, 09.05. 14:30 18 3 40 190° S
So, 09.05. 14:00 18 3 43 170° S
So, 09.05. 13:30 19 3 43 160° S
So, 09.05. 13:00 19 3 46 160° S
So, 09.05. 12:30 19 3 39 160° S
Ortszeit Untergrenze Bedeckung Gattung
total tief tief mittel hoch
So, 09.05. 14:00 - 0/8 0/8 - - -
So, 09.05. 8:00 6900 m 7/8 6/8 - - -
So, 09.05. 2:00 10500 m 7/8 0/8 - - -
Sa, 08.05. 20:00 8700 m 7/8 0/8 - - -
Sa, 08.05. 14:00 1500 m 8/8 7/8 - - -
Sa, 08.05. 8:00 10500 m 2/8 0/8 - - -
Sa, 08.05. 2:00 1500 m 7/8 7/8 - - -
Fr, 07.05. 20:00 - 0/8 0/8 - - -
Ortszeit Bedeckungsgrad in Achtel und Wolkenuntergrenze
So, 09.05. 15:30 6(6000m) 8(6600m) 8(7200m)
So, 09.05. 15:20 6(6000m) 8(6600m) 8(7200m)
So, 09.05. 15:10 7(6000m)
So, 09.05. 15:00 3(6300m)
So, 09.05. 14:50 3(6300m)
So, 09.05. 14:40 3(6300m)
So, 09.05. 14:30 keine Wolken
So, 09.05. 14:00 keine Wolken
So, 09.05. 13:30 keine Wolken
So, 09.05. 13:00 keine Wolken
So, 09.05. 12:30 2(6900m)
Ortszeit Stationsdruck (hPa) Tendenz (hPa in 3 Std.)
So, 09.05. 14:00 914 - 1,2
So, 09.05. 8:00 916 + 0,1
So, 09.05. 2:00 917 - 0,5
Sa, 08.05. 20:00 918 - 1,0
Sa, 08.05. 14:00 920 - 1,3
Sa, 08.05. 8:00 922 + 0,1
Sa, 08.05. 2:00 922 + 0,2
Fr, 07.05. 20:00 922 + 1,3
Ortszeit Stationsdruck (hPa) Tendenz (hPa in 3 Std.)
So, 09.05. 15:30 914 - 1,2
So, 09.05. 15:20 914 keine Meldung
So, 09.05. 15:10 914 keine Meldung
So, 09.05. 15:00 914 - 1,0
So, 09.05. 14:50 914 keine Meldung
So, 09.05. 14:40 914 keine Meldung
So, 09.05. 14:30 914 - 0,9
So, 09.05. 14:00 914 - 1,2
So, 09.05. 13:30 914 - 1,1
So, 09.05. 13:00 915 - 1,2
So, 09.05. 12:30 915 - 0,9
Ortszeit Schneehöhe (cm)
So, 09.05. 14:00 0
So, 09.05. 8:00 0
So, 09.05. 2:00 0
Sa, 08.05. 20:00 0
Sa, 08.05. 14:00 0
Sa, 08.05. 8:00 0
Sa, 08.05. 2:00 0
Fr, 07.05. 20:00 0
Ortszeit Schneehöhe (cm)
So, 09.05. 15:30 0
So, 09.05. 15:20 0
So, 09.05. 15:10 0
So, 09.05. 15:00 0
So, 09.05. 14:50 0
So, 09.05. 14:40 0
So, 09.05. 14:30 0
So, 09.05. 14:00 0
So, 09.05. 13:30 0
So, 09.05. 13:00 0
So, 09.05. 12:30 0
Link zu dieser Seite / Seite empfehlen

Das Wetter in ...